sensor_id;sensor_type;location;lat;lon;timestamp;temperature;humidity
18321;DHT22;54904;54.350;18.664;2023-04-01T00:02:17;10.10;99.90
18321;DHT22;54904;54.350;18.664;2023-04-01T00:04:44;9.90;99.90
18321;DHT22;54904;54.350;18.664;2023-04-01T00:07:12;9.90;99.90
18321;DHT22;54904;54.350;18.664;2023-04-01T00:09:39;9.90;99.90
18321;DHT22;54904;54.350;18.664;2023-04-01T00:12:06;9.80;99.90
18321;DHT22;54904;54.350;18.664;2023-04-01T00:14:34;9.90;99.90
18321;DHT22;54904;54.350;18.664;2023-04-01T00:17:04;9.80;99.90
18321;DHT22;54904;54.350;18.664;2023-04-01T00:19:31;9.80;99.90
18321;DHT22;54904;54.350;18.664;2023-04-01T00:21:58;9.80;99.90
18321;DHT22;54904;54.350;18.664;2023-04-01T00:24:26;9.80;99.90
18321;DHT22;54904;54.350;18.664;2023-04-01T00:26:53;9.80;99.90
18321;DHT22;54904;54.350;18.664;2023-04-01T00:29:20;9.80;99.90
18321;DHT22;54904;54.350;18.664;2023-04-01T00:31:49;9.80;99.90
18321;DHT22;54904;54.350;18.664;2023-04-01T00:34:18;9.70;99.90
18321;DHT22;54904;54.350;18.664;2023-04-01T00:36:46;9.70;99.90
18321;DHT22;54904;54.350;18.664;2023-04-01T00:39:13;9.70;99.90
18321;DHT22;54904;54.350;18.664;2023-04-01T00:41:40;9.70;99.90
18321;DHT22;54904;54.350;18.664;2023-04-01T00:44:17;9.70;99.90
18321;DHT22;54904;54.350;18.664;2023-04-01T00:46:45;9.70;99.90
18321;DHT22;54904;54.350;18.664;2023-04-01T00:49:12;9.70;99.90
18321;DHT22;54904;54.350;18.664;2023-04-01T00:51:42;9.70;99.90
18321;DHT22;54904;54.350;18.664;2023-04-01T00:54:10;9.60;99.90
18321;DHT22;54904;54.350;18.664;2023-04-01T00:56:42;9.60;99.90
18321;DHT22;54904;54.350;18.664;2023-04-01T00:59:17;9.60;99.90
18321;DHT22;54904;54.350;18.664;2023-04-01T01:01:46;9.50;99.90
18321;DHT22;54904;54.350;18.664;2023-04-01T01:04:25;9.40;99.90
18321;DHT22;54904;54.350;18.664;2023-04-01T01:07:02;9.40;99.90
18321;DHT22;54904;54.350;18.664;2023-04-01T01:09:41;9.40;99.90
18321;DHT22;54904;54.350;18.664;2023-04-01T01:12:14;9.40;99.90
18321;DHT22;54904;54.350;18.664;2023-04-01T01:14:52;9.40;99.90
18321;DHT22;54904;54.350;18.664;2023-04-01T01:17:26;9.40;99.90
18321;DHT22;54904;54.350;18.664;2023-04-01T01:23:06;9.40;99.90
18321;DHT22;54904;54.350;18.664;2023-04-01T01:25:44;9.30;99.90
18321;DHT22;54904;54.350;18.664;2023-04-01T01:28:32;9.30;99.90
18321;DHT22;54904;54.350;18.664;2023-04-01T01:31:09;9.30;99.90
18321;DHT22;54904;54.350;18.664;2023-04-01T01:33:48;9.30;99.90
18321;DHT22;54904;54.350;18.664;2023-04-01T01:36:20;9.20;99.90
18321;DHT22;54904;54.350;18.664;2023-04-01T01:38:51;9.20;99.90
18321;DHT22;54904;54.350;18.664;2023-04-01T01:41:19;9.10;99.90
18321;DHT22;54904;54.350;18.664;2023-04-01T01:43:49;9.10;99.90
18321;DHT22;54904;54.350;18.664;2023-04-01T01:46:19;9.20;99.90
18321;DHT22;54904;54.350;18.664;2023-04-01T01:48:48;9.10;99.90
18321;DHT22;54904;54.350;18.664;2023-04-01T01:51:17;9.10;99.90
18321;DHT22;54904;54.350;18.664;2023-04-01T01:53:46;9.10;99.90
18321;DHT22;54904;54.350;18.664;2023-04-01T01:56:16;9.10;99.90
18321;DHT22;54904;54.350;18.664;2023-04-01T01:58:47;9.10;99.90
18321;DHT22;54904;54.350;18.664;2023-04-01T02:01:22;9.00;99.90
18321;DHT22;54904;54.350;18.664;2023-04-01T02:03:52;9.00;99.90
18321;DHT22;54904;54.350;18.664;2023-04-01T02:06:22;9.00;99.90
18321;DHT22;54904;54.350;18.664;2023-04-01T02:08:53;9.00;99.90
18321;DHT22;54904;54.350;18.664;2023-04-01T02:11:26;9.00;99.90
18321;DHT22;54904;54.350;18.664;2023-04-01T02:13:55;9.00;99.90
18321;DHT22;54904;54.350;18.664;2023-04-01T02:16:26;9.00;99.90
18321;DHT22;54904;54.350;18.664;2023-04-01T02:18:56;9.10;99.90
18321;DHT22;54904;54.350;18.664;2023-04-01T02:21:28;9.10;99.90
18321;DHT22;54904;54.350;18.664;2023-04-01T02:24:01;9.00;99.90
18321;DHT22;54904;54.350;18.664;2023-04-01T02:26:30;9.10;99.90
18321;DHT22;54904;54.350;18.664;2023-04-01T02:28:59;9.10;99.90
18321;DHT22;54904;54.350;18.664;2023-04-01T02:31:28;9.10;99.90
18321;DHT22;54904;54.350;18.664;2023-04-01T02:33:56;9.10;99.90
18321;DHT22;54904;54.350;18.664;2023-04-01T02:36:24;9.10;99.90
18321;DHT22;54904;54.350;18.664;2023-04-01T02:38:52;9.10;99.90
18321;DHT22;54904;54.350;18.664;2023-04-01T02:41:22;9.20;99.90
18321;DHT22;54904;54.350;18.664;2023-04-01T02:43:49;9.20;99.90
18321;DHT22;54904;54.350;18.664;2023-04-01T02:46:17;9.20;99.90
18321;DHT22;54904;54.350;18.664;2023-04-01T02:48:44;9.20;99.90
18321;DHT22;54904;54.350;18.664;2023-04-01T02:51:11;9.20;99.90
18321;DHT22;54904;54.350;18.664;2023-04-01T02:53:38;9.30;99.90
18321;DHT22;54904;54.350;18.664;2023-04-01T02:56:06;9.30;99.90
18321;DHT22;54904;54.350;18.664;2023-04-01T02:58:35;9.30;99.90
18321;DHT22;54904;54.350;18.664;2023-04-01T03:01:02;9.30;99.90
18321;DHT22;54904;54.350;18.664;2023-04-01T03:03:29;9.40;99.90
18321;DHT22;54904;54.350;18.664;2023-04-01T03:05:57;9.40;99.90
18321;DHT22;54904;54.350;18.664;2023-04-01T03:08:25;9.30;99.90
18321;DHT22;54904;54.350;18.664;2023-04-01T03:10:53;9.30;99.90
18321;DHT22;54904;54.350;18.664;2023-04-01T03:13:20;9.30;99.90
18321;DHT22;54904;54.350;18.664;2023-04-01T03:15:49;9.30;99.90
18321;DHT22;54904;54.350;18.664;2023-04-01T03:18:16;9.40;99.90
18321;DHT22;54904;54.350;18.664;2023-04-01T03:20:44;9.40;99.90
18321;DHT22;54904;54.350;18.664;2023-04-01T03:23:11;9.40;99.90
18321;DHT22;54904;54.350;18.664;2023-04-01T03:25:39;9.40;99.90
18321;DHT22;54904;54.350;18.664;2023-04-01T03:28:06;9.40;99.90
18321;DHT22;54904;54.350;18.664;2023-04-01T03:30:33;9.40;99.90
18321;DHT22;54904;54.350;18.664;2023-04-01T03:33:02;9.40;99.90
18321;DHT22;54904;54.350;18.664;2023-04-01T03:35:31;9.40;99.90
18321;DHT22;54904;54.350;18.664;2023-04-01T03:37:59;9.40;99.90
18321;DHT22;54904;54.350;18.664;2023-04-01T03:40:26;9.40;99.90
18321;DHT22;54904;54.350;18.664;2023-04-01T03:42:53;9.40;99.90
18321;DHT22;54904;54.350;18.664;2023-04-01T03:45:22;9.40;99.90
18321;DHT22;54904;54.350;18.664;2023-04-01T03:47:49;9.40;99.90
18321;DHT22;54904;54.350;18.664;2023-04-01T03:50:18;9.40;99.90
18321;DHT22;54904;54.350;18.664;2023-04-01T03:52:45;9.40;99.90
18321;DHT22;54904;54.350;18.664;2023-04-01T03:55:13;9.40;99.90
18321;DHT22;54904;54.350;18.664;2023-04-01T03:57:40;9.40;99.90
18321;DHT22;54904;54.350;18.664;2023-04-01T04:00:16;9.40;99.90
18321;DHT22;54904;54.350;18.664;2023-04-01T04:02:46;9.40;99.90
18321;DHT22;54904;54.350;18.664;2023-04-01T04:05:20;9.40;99.90
18321;DHT22;54904;54.350;18.664;2023-04-01T04:07:48;9.40;99.90
18321;DHT22;54904;54.350;18.664;2023-04-01T04:10:16;9.40;99.90
18321;DHT22;54904;54.350;18.664;2023-04-01T04:12:43;9.40;99.90
18321;DHT22;54904;54.350;18.664;2023-04-01T04:15:10;9.50;99.90
18321;DHT22;54904;54.350;18.664;2023-04-01T04:17:38;9.50;99.90
18321;DHT22;54904;54.350;18.664;2023-04-01T04:20:07;9.50;99.90
18321;DHT22;54904;54.350;18.664;2023-04-01T04:22:36;9.50;99.90
18321;DHT22;54904;54.350;18.664;2023-04-01T04:25:06;9.50;99.90
18321;DHT22;54904;54.350;18.664;2023-04-01T04:27:34;9.50;99.90
18321;DHT22;54904;54.350;18.664;2023-04-01T04:30:07;9.60;99.90
18321;DHT22;54904;54.350;18.664;2023-04-01T04:32:36;9.60;99.90
18321;DHT22;54904;54.350;18.664;2023-04-01T04:35:05;9.60;99.90
18321;DHT22;54904;54.350;18.664;2023-04-01T04:37:33;9.60;99.90
18321;DHT22;54904;54.350;18.664;2023-04-01T04:40:02;9.60;99.90
18321;DHT22;54904;54.350;18.664;2023-04-01T04:42:30;9.60;99.90
18321;DHT22;54904;54.350;18.664;2023-04-01T04:45:05;9.60;99.90
18321;DHT22;54904;54.350;18.664;2023-04-01T04:47:32;9.60;99.90
18321;DHT22;54904;54.350;18.664;2023-04-01T04:49:59;9.60;99.90
18321;DHT22;54904;54.350;18.664;2023-04-01T04:52:26;9.60;99.90
18321;DHT22;54904;54.350;18.664;2023-04-01T04:54:54;9.60;99.90
18321;DHT22;54904;54.350;18.664;2023-04-01T04:57:23;9.60;99.90
18321;DHT22;54904;54.350;18.664;2023-04-01T04:59:54;9.60;99.90
18321;DHT22;54904;54.350;18.664;2023-04-01T05:02:42;9.60;99.90
18321;DHT22;54904;54.350;18.664;2023-04-01T05:05:09;9.60;99.90
18321;DHT22;54904;54.350;18.664;2023-04-01T05:07:36;9.60;99.90
18321;DHT22;54904;54.350;18.664;2023-04-01T05:10:05;9.60;99.90
18321;DHT22;54904;54.350;18.664;2023-04-01T05:12:34;9.60;99.90
18321;DHT22;54904;54.350;18.664;2023-04-01T05:15:05;9.50;99.90
18321;DHT22;54904;54.350;18.664;2023-04-01T05:17:33;9.50;99.90
18321;DHT22;54904;54.350;18.664;2023-04-01T05:20:02;9.50;99.90
18321;DHT22;54904;54.350;18.664;2023-04-01T05:22:30;9.40;99.90
18321;DHT22;54904;54.350;18.664;2023-04-01T05:24:57;9.40;99.90
18321;DHT22;54904;54.350;18.664;2023-04-01T05:27:25;9.30;99.90
18321;DHT22;54904;54.350;18.664;2023-04-01T05:29:54;9.30;99.90
18321;DHT22;54904;54.350;18.664;2023-04-01T05:32:43;9.30;99.90
18321;DHT22;54904;54.350;18.664;2023-04-01T05:35:11;9.20;99.90
18321;DHT22;54904;54.350;18.664;2023-04-01T05:37:38;9.20;99.90
18321;DHT22;54904;54.350;18.664;2023-04-01T05:40:07;9.20;99.90
18321;DHT22;54904;54.350;18.664;2023-04-01T05:42:34;9.10;99.90
18321;DHT22;54904;54.350;18.664;2023-04-01T05:45:03;9.10;99.90
18321;DHT22;54904;54.350;18.664;2023-04-01T05:47:51;9.10;99.90
18321;DHT22;54904;54.350;18.664;2023-04-01T05:50:18;9.10;99.90
18321;DHT22;54904;54.350;18.664;2023-04-01T05:52:46;9.00;99.90
18321;DHT22;54904;54.350;18.664;2023-04-01T05:55:13;9.00;99.90
18321;DHT22;54904;54.350;18.664;2023-04-01T05:57:41;9.00;99.90
18321;DHT22;54904;54.350;18.664;2023-04-01T06:00:11;9.00;99.90
18321;DHT22;54904;54.350;18.664;2023-04-01T06:02:40;9.00;99.90
18321;DHT22;54904;54.350;18.664;2023-04-01T06:05:13;9.00;99.90
18321;DHT22;54904;54.350;18.664;2023-04-01T06:07:41;8.90;99.90
18321;DHT22;54904;54.350;18.664;2023-04-01T06:10:16;8.90;99.90
18321;DHT22;54904;54.350;18.664;2023-04-01T06:12:58;8.90;99.90
18321;DHT22;54904;54.350;18.664;2023-04-01T06:15:36;8.90;99.90
18321;DHT22;54904;54.350;18.664;2023-04-01T06:24:15;9.00;99.90
18321;DHT22;54904;54.350;18.664;2023-04-01T06:26:52;8.90;99.90
18321;DHT22;54904;54.350;18.664;2023-04-01T06:29:43;9.50;99.90
18321;DHT22;54904;54.350;18.664;2023-04-01T06:32:32;8.90;99.90
18321;DHT22;54904;54.350;18.664;2023-04-01T06:38:30;8.80;99.90
18321;DHT22;54904;54.350;18.664;2023-04-01T06:44:14;8.90;99.90
18321;DHT22;54904;54.350;18.664;2023-04-01T06:47:08;8.80;99.90
18321;DHT22;54904;54.350;18.664;2023-04-01T06:49:53;8.80;99.90
18321;DHT22;54904;54.350;18.664;2023-04-01T06:52:52;8.80;99.90
18321;DHT22;54904;54.350;18.664;2023-04-01T06:55:42;8.80;99.90
18321;DHT22;54904;54.350;18.664;2023-04-01T06:58:20;8.80;99.90
18321;DHT22;54904;54.350;18.664;2023-04-01T07:00:51;8.80;99.90
18321;DHT22;54904;54.350;18.664;2023-04-01T07:03:26;8.80;99.90
18321;DHT22;54904;54.350;18.664;2023-04-01T07:06:04;8.70;99.90
18321;DHT22;54904;54.350;18.664;2023-04-01T07:08:38;8.70;99.90
18321;DHT22;54904;54.350;18.664;2023-04-01T07:11:09;8.70;99.90
18321;DHT22;54904;54.350;18.664;2023-04-01T07:13:59;8.70;99.90
18321;DHT22;54904;54.350;18.664;2023-04-01T07:16:31;8.70;99.90
18321;DHT22;54904;54.350;18.664;2023-04-01T07:19:03;8.70;99.90
18321;DHT22;54904;54.350;18.664;2023-04-01T07:21:56;8.80;99.90
18321;DHT22;54904;54.350;18.664;2023-04-01T07:24:39;8.80;99.90
18321;DHT22;54904;54.350;18.664;2023-04-01T07:27:11;8.80;99.90
18321;DHT22;54904;54.350;18.664;2023-04-01T07:29:39;8.80;99.90
18321;DHT22;54904;54.350;18.664;2023-04-01T07:32:24;8.80;99.90
18321;DHT22;54904;54.350;18.664;2023-04-01T07:35:09;8.80;99.90
18321;DHT22;54904;54.350;18.664;2023-04-01T07:37:49;8.90;99.90
18321;DHT22;54904;54.350;18.664;2023-04-01T07:40:26;8.90;99.90
18321;DHT22;54904;54.350;18.664;2023-04-01T07:43:10;8.90;99.90
18321;DHT22;54904;54.350;18.664;2023-04-01T07:45:52;8.90;99.90
18321;DHT22;54904;54.350;18.664;2023-04-01T07:48:25;8.90;99.90
18321;DHT22;54904;54.350;18.664;2023-04-01T07:51:01;8.90;99.90
18321;DHT22;54904;54.350;18.664;2023-04-01T07:53:36;8.80;99.90
18321;DHT22;54904;54.350;18.664;2023-04-01T07:56:11;8.80;99.90
18321;DHT22;54904;54.350;18.664;2023-04-01T07:58:50;8.70;99.90
18321;DHT22;54904;54.350;18.664;2023-04-01T08:02:08;8.70;99.90
18321;DHT22;54904;54.350;18.664;2023-04-01T08:04:55;8.70;99.90
18321;DHT22;54904;54.350;18.664;2023-04-01T08:07:34;8.70;99.90
18321;DHT22;54904;54.350;18.664;2023-04-01T08:10:34;8.70;99.90
18321;DHT22;54904;54.350;18.664;2023-04-01T08:13:31;8.60;99.90
18321;DHT22;54904;54.350;18.664;2023-04-01T08:16:22;8.60;99.90
18321;DHT22;54904;54.350;18.664;2023-04-01T08:19:01;8.60;99.90
18321;DHT22;54904;54.350;18.664;2023-04-01T08:21:37;8.70;99.90
18321;DHT22;54904;54.350;18.664;2023-04-01T08:24:11;8.70;99.90
18321;DHT22;54904;54.350;18.664;2023-04-01T08:26:50;8.70;99.90
18321;DHT22;54904;54.350;18.664;2023-04-01T08:29:20;8.80;99.90
18321;DHT22;54904;54.350;18.664;2023-04-01T08:31:51;8.70;99.90
18321;DHT22;54904;54.350;18.664;2023-04-01T08:34:23;8.70;99.90
18321;DHT22;54904;54.350;18.664;2023-04-01T08:36:56;8.70;99.90
18321;DHT22;54904;54.350;18.664;2023-04-01T08:39:29;8.60;99.90
18321;DHT22;54904;54.350;18.664;2023-04-01T08:42:19;8.60;99.90
18321;DHT22;54904;54.350;18.664;2023-04-01T08:45:15;8.60;99.90
18321;DHT22;54904;54.350;18.664;2023-04-01T08:48:14;8.60;99.90
18321;DHT22;54904;54.350;18.664;2023-04-01T08:51:05;8.60;99.90
18321;DHT22;54904;54.350;18.664;2023-04-01T08:54:04;8.60;99.90
18321;DHT22;54904;54.350;18.664;2023-04-01T08:56:36;8.60;99.90
18321;DHT22;54904;54.350;18.664;2023-04-01T08:59:29;8.60;99.90
18321;DHT22;54904;54.350;18.664;2023-04-01T09:02:41;8.60;99.90
18321;DHT22;54904;54.350;18.664;2023-04-01T09:05:54;8.60;99.90
18321;DHT22;54904;54.350;18.664;2023-04-01T09:08:38;8.60;99.90
18321;DHT22;54904;54.350;18.664;2023-04-01T09:11:26;8.60;99.90
18321;DHT22;54904;54.350;18.664;2023-04-01T09:17:40;8.50;99.90
18321;DHT22;54904;54.350;18.664;2023-04-01T09:20:25;8.50;99.90
18321;DHT22;54904;54.350;18.664;2023-04-01T09:23:15;8.50;99.90
18321;DHT22;54904;54.350;18.664;2023-04-01T09:26:08;8.50;99.90
18321;DHT22;54904;54.350;18.664;2023-04-01T09:28:47;8.50;99.90
18321;DHT22;54904;54.350;18.664;2023-04-01T09:31:47;8.50;99.90
18321;DHT22;54904;54.350;18.664;2023-04-01T09:34:53;8.50;99.90
18321;DHT22;54904;54.350;18.664;2023-04-01T09:37:34;8.50;99.90
18321;DHT22;54904;54.350;18.664;2023-04-01T09:40:31;8.40;99.90
18321;DHT22;54904;54.350;18.664;2023-04-01T09:43:21;8.50;99.90
18321;DHT22;54904;54.350;18.664;2023-04-01T09:46:11;8.50;99.90
18321;DHT22;54904;54.350;18.664;2023-04-01T09:49:08;8.50;99.90
18321;DHT22;54904;54.350;18.664;2023-04-01T09:51:53;8.50;99.90
18321;DHT22;54904;54.350;18.664;2023-04-01T09:54:36;8.50;99.90
18321;DHT22;54904;54.350;18.664;2023-04-01T10:00:49;8.40;99.90
18321;DHT22;54904;54.350;18.664;2023-04-01T10:07:03;8.40;99.90
18321;DHT22;54904;54.350;18.664;2023-04-01T10:09:58;8.40;99.90
18321;DHT22;54904;54.350;18.664;2023-04-01T10:12:50;8.40;99.90
18321;DHT22;54904;54.350;18.664;2023-04-01T10:15:47;8.30;99.90
18321;DHT22;54904;54.350;18.664;2023-04-01T10:19:03;8.30;99.90
18321;DHT22;54904;54.350;18.664;2023-04-01T10:22:04;8.30;99.90
18321;DHT22;54904;54.350;18.664;2023-04-01T10:25:00;8.30;99.90
18321;DHT22;54904;54.350;18.664;2023-04-01T10:27:50;8.30;99.90
18321;DHT22;54904;54.350;18.664;2023-04-01T10:31:35;8.30;99.90
18321;DHT22;54904;54.350;18.664;2023-04-01T10:34:47;8.30;99.90
18321;DHT22;54904;54.350;18.664;2023-04-01T10:37:49;8.30;99.90
18321;DHT22;54904;54.350;18.664;2023-04-01T10:47:09;8.30;99.90
18321;DHT22;54904;54.350;18.664;2023-04-01T10:56:39;8.30;99.90
18321;DHT22;54904;54.350;18.664;2023-04-01T11:06:42;8.30;99.90
18321;DHT22;54904;54.350;18.664;2023-04-01T11:09:34;8.30;99.90
18321;DHT22;54904;54.350;18.664;2023-04-01T11:21:50;8.20;99.90
18321;DHT22;54904;54.350;18.664;2023-04-01T11:30:53;8.20;99.90
18321;DHT22;54904;54.350;18.664;2023-04-01T11:33:29;8.20;99.90
18321;DHT22;54904;54.350;18.664;2023-04-01T11:36:12;8.20;99.90
18321;DHT22;54904;54.350;18.664;2023-04-01T11:39:00;8.20;99.90
18321;DHT22;54904;54.350;18.664;2023-04-01T11:42:06;8.20;99.90
18321;DHT22;54904;54.350;18.664;2023-04-01T11:45:13;8.20;99.90
18321;DHT22;54904;54.350;18.664;2023-04-01T11:48:26;8.20;99.90
18321;DHT22;54904;54.350;18.664;2023-04-01T11:51:10;8.20;99.90
18321;DHT22;54904;54.350;18.664;2023-04-01T11:53:47;8.10;99.90
18321;DHT22;54904;54.350;18.664;2023-04-01T11:56:37;8.10;99.90
18321;DHT22;54904;54.350;18.664;2023-04-01T12:02:16;8.10;99.90
18321;DHT22;54904;54.350;18.664;2023-04-01T12:05:01;8.10;99.90
18321;DHT22;54904;54.350;18.664;2023-04-01T12:08:06;8.10;99.90
18321;DHT22;54904;54.350;18.664;2023-04-01T12:10:40;8.10;99.90
18321;DHT22;54904;54.350;18.664;2023-04-01T12:13:26;8.10;99.90
18321;DHT22;54904;54.350;18.664;2023-04-01T12:16:10;8.10;99.90
18321;DHT22;54904;54.350;18.664;2023-04-01T12:18:43;8.10;99.90
18321;DHT22;54904;54.350;18.664;2023-04-01T12:21:21;8.20;99.90
18321;DHT22;54904;54.350;18.664;2023-04-01T12:24:03;8.10;99.90
18321;DHT22;54904;54.350;18.664;2023-04-01T12:26:43;8.10;99.90
18321;DHT22;54904;54.350;18.664;2023-04-01T12:32:17;8.10;99.90
18321;DHT22;54904;54.350;18.664;2023-04-01T12:35:05;8.00;99.90
18321;DHT22;54904;54.350;18.664;2023-04-01T12:37:44;8.00;99.90
18321;DHT22;54904;54.350;18.664;2023-04-01T12:40:43;7.90;99.90
18321;DHT22;54904;54.350;18.664;2023-04-01T12:46:12;7.80;99.90
18321;DHT22;54904;54.350;18.664;2023-04-01T12:49:06;7.80;99.90
18321;DHT22;54904;54.350;18.664;2023-04-01T12:52:04;7.80;99.90
18321;DHT22;54904;54.350;18.664;2023-04-01T12:54:56;7.80;99.90
18321;DHT22;54904;54.350;18.664;2023-04-01T12:57:49;7.80;99.90
18321;DHT22;54904;54.350;18.664;2023-04-01T13:00:30;7.80;99.90
18321;DHT22;54904;54.350;18.664;2023-04-01T13:03:24;7.80;99.90
18321;DHT22;54904;54.350;18.664;2023-04-01T13:06:25;7.80;99.90
18321;DHT22;54904;54.350;18.664;2023-04-01T13:09:01;7.80;99.90
18321;DHT22;54904;54.350;18.664;2023-04-01T13:11:42;7.80;99.90
18321;DHT22;54904;54.350;18.664;2023-04-01T13:14:32;7.80;99.90
18321;DHT22;54904;54.350;18.664;2023-04-01T13:17:08;7.80;99.90
18321;DHT22;54904;54.350;18.664;2023-04-01T13:19:43;7.80;99.90
18321;DHT22;54904;54.350;18.664;2023-04-01T13:22:19;7.80;99.90
18321;DHT22;54904;54.350;18.664;2023-04-01T13:24:51;7.80;99.90
18321;DHT22;54904;54.350;18.664;2023-04-01T13:27:27;7.70;99.90
18321;DHT22;54904;54.350;18.664;2023-04-01T13:30:18;7.80;99.90
18321;DHT22;54904;54.350;18.664;2023-04-01T13:32:53;7.80;99.90
18321;DHT22;54904;54.350;18.664;2023-04-01T13:35:29;7.80;99.90
18321;DHT22;54904;54.350;18.664;2023-04-01T13:38:24;7.80;99.90
18321;DHT22;54904;54.350;18.664;2023-04-01T13:41:00;7.80;99.90
18321;DHT22;54904;54.350;18.664;2023-04-01T13:43:34;7.80;99.90
18321;DHT22;54904;54.350;18.664;2023-04-01T13:46:12;7.80;99.90
18321;DHT22;54904;54.350;18.664;2023-04-01T13:48:55;7.80;99.90
18321;DHT22;54904;54.350;18.664;2023-04-01T13:52:03;7.80;99.90
18321;DHT22;54904;54.350;18.664;2023-04-01T13:54:48;7.80;99.90
18321;DHT22;54904;54.350;18.664;2023-04-01T13:57:32;7.80;99.90
18321;DHT22;54904;54.350;18.664;2023-04-01T14:00:20;7.80;99.90
18321;DHT22;54904;54.350;18.664;2023-04-01T14:03:03;7.80;99.90
18321;DHT22;54904;54.350;18.664;2023-04-01T14:05:47;7.70;99.90
18321;DHT22;54904;54.350;18.664;2023-04-01T14:08:26;7.70;99.90
18321;DHT22;54904;54.350;18.664;2023-04-01T14:11:09;7.70;99.90
18321;DHT22;54904;54.350;18.664;2023-04-01T14:13:41;7.60;99.90
18321;DHT22;54904;54.350;18.664;2023-04-01T14:16:33;7.60;99.90
18321;DHT22;54904;54.350;18.664;2023-04-01T14:19:17;7.60;99.90
18321;DHT22;54904;54.350;18.664;2023-04-01T14:21:59;7.60;99.90
18321;DHT22;54904;54.350;18.664;2023-04-01T14:24:45;7.60;99.90
18321;DHT22;54904;54.350;18.664;2023-04-01T14:27:35;7.60;99.90
18321;DHT22;54904;54.350;18.664;2023-04-01T14:30:23;7.60;99.90
18321;DHT22;54904;54.350;18.664;2023-04-01T14:33:01;7.60;99.90
18321;DHT22;54904;54.350;18.664;2023-04-01T14:35:39;7.60;99.90
18321;DHT22;54904;54.350;18.664;2023-04-01T14:38:39;7.60;99.90
18321;DHT22;54904;54.350;18.664;2023-04-01T14:41:19;7.60;99.90
18321;DHT22;54904;54.350;18.664;2023-04-01T14:47:08;7.60;99.90
18321;DHT22;54904;54.350;18.664;2023-04-01T14:49:41;7.50;99.90
18321;DHT22;54904;54.350;18.664;2023-04-01T14:52:13;7.50;99.90
18321;DHT22;54904;54.350;18.664;2023-04-01T14:54:43;7.50;99.90
18321;DHT22;54904;54.350;18.664;2023-04-01T14:57:13;7.50;99.90
18321;DHT22;54904;54.350;18.664;2023-04-01T14:59:47;7.50;99.90
18321;DHT22;54904;54.350;18.664;2023-04-01T15:02:38;7.50;99.90
18321;DHT22;54904;54.350;18.664;2023-04-01T15:05:16;7.50;99.90
18321;DHT22;54904;54.350;18.664;2023-04-01T15:08:02;7.50;99.90
18321;DHT22;54904;54.350;18.664;2023-04-01T15:10:52;7.60;99.90
18321;DHT22;54904;54.350;18.664;2023-04-01T15:13:41;7.60;99.90
18321;DHT22;54904;54.350;18.664;2023-04-01T15:16:20;7.60;99.90
18321;DHT22;54904;54.350;18.664;2023-04-01T15:18:56;7.60;99.90
18321;DHT22;54904;54.350;18.664;2023-04-01T15:21:49;7.60;99.90
18321;DHT22;54904;54.350;18.664;2023-04-01T15:24:21;7.50;99.90
18321;DHT22;54904;54.350;18.664;2023-04-01T15:27:20;7.60;99.90
18321;DHT22;54904;54.350;18.664;2023-04-01T15:30:19;7.50;99.90
18321;DHT22;54904;54.350;18.664;2023-04-01T15:32:58;7.60;99.90
18321;DHT22;54904;54.350;18.664;2023-04-01T15:35:39;7.50;99.90
18321;DHT22;54904;54.350;18.664;2023-04-01T15:38:22;7.50;99.90
18321;DHT22;54904;54.350;18.664;2023-04-01T15:41:02;7.50;99.90
18321;DHT22;54904;54.350;18.664;2023-04-01T15:43:40;7.50;99.90
18321;DHT22;54904;54.350;18.664;2023-04-01T15:46:25;7.50;99.90
18321;DHT22;54904;54.350;18.664;2023-04-01T15:49:26;7.50;99.90
18321;DHT22;54904;54.350;18.664;2023-04-01T15:52:16;7.50;99.90
18321;DHT22;54904;54.350;18.664;2023-04-01T15:55:12;7.50;99.90
18321;DHT22;54904;54.350;18.664;2023-04-01T15:57:47;7.50;99.90
18321;DHT22;54904;54.350;18.664;2023-04-01T16:00:28;7.50;99.90
18321;DHT22;54904;54.350;18.664;2023-04-01T16:06:08;7.50;99.90
18321;DHT22;54904;54.350;18.664;2023-04-01T16:09:01;7.50;99.90
18321;DHT22;54904;54.350;18.664;2023-04-01T16:11:35;7.40;99.90
18321;DHT22;54904;54.350;18.664;2023-04-01T16:14:18;7.50;99.90
18321;DHT22;54904;54.350;18.664;2023-04-01T16:17:02;7.50;99.90
18321;DHT22;54904;54.350;18.664;2023-04-01T16:19:49;7.50;99.90
18321;DHT22;54904;54.350;18.664;2023-04-01T16:22:23;7.40;99.90
18321;DHT22;54904;54.350;18.664;2023-04-01T16:25:07;7.40;99.90
18321;DHT22;54904;54.350;18.664;2023-04-01T16:27:46;7.40;99.90
18321;DHT22;54904;54.350;18.664;2023-04-01T16:30:35;7.40;99.90
18321;DHT22;54904;54.350;18.664;2023-04-01T16:33:09;7.40;99.90
18321;DHT22;54904;54.350;18.664;2023-04-01T16:35:43;7.40;99.90
18321;DHT22;54904;54.350;18.664;2023-04-01T16:38:18;7.40;99.90
18321;DHT22;54904;54.350;18.664;2023-04-01T16:41:00;7.40;99.90
18321;DHT22;54904;54.350;18.664;2023-04-01T16:43:39;7.30;99.90
18321;DHT22;54904;54.350;18.664;2023-04-01T16:46:28;7.30;99.90
18321;DHT22;54904;54.350;18.664;2023-04-01T16:49:13;7.30;99.90
18321;DHT22;54904;54.350;18.664;2023-04-01T16:51:46;7.30;99.90
18321;DHT22;54904;54.350;18.664;2023-04-01T16:54:26;7.30;99.90
18321;DHT22;54904;54.350;18.664;2023-04-01T16:56:56;7.30;99.90
18321;DHT22;54904;54.350;18.664;2023-04-01T16:59:34;7.30;99.90
18321;DHT22;54904;54.350;18.664;2023-04-01T17:02:09;7.20;99.90
18321;DHT22;54904;54.350;18.664;2023-04-01T17:04:41;7.20;99.90
18321;DHT22;54904;54.350;18.664;2023-04-01T17:07:28;7.20;99.90
18321;DHT22;54904;54.350;18.664;2023-04-01T17:10:27;7.20;99.90
18321;DHT22;54904;54.350;18.664;2023-04-01T17:13:24;7.20;99.90
18321;DHT22;54904;54.350;18.664;2023-04-01T17:16:02;7.20;99.90
18321;DHT22;54904;54.350;18.664;2023-04-01T17:18:39;7.30;99.90
18321;DHT22;54904;54.350;18.664;2023-04-01T17:21:12;7.30;99.90
18321;DHT22;54904;54.350;18.664;2023-04-01T17:23:45;7.20;99.90
18321;DHT22;54904;54.350;18.664;2023-04-01T17:26:24;7.20;99.90
18321;DHT22;54904;54.350;18.664;2023-04-01T17:28:58;7.20;99.90
18321;DHT22;54904;54.350;18.664;2023-04-01T17:31:37;7.10;99.90
18321;DHT22;54904;54.350;18.664;2023-04-01T17:34:18;7.10;99.90
18321;DHT22;54904;54.350;18.664;2023-04-01T17:37:04;7.20;99.90
18321;DHT22;54904;54.350;18.664;2023-04-01T17:39:48;7.20;99.90
18321;DHT22;54904;54.350;18.664;2023-04-01T17:42:27;7.10;99.90
18321;DHT22;54904;54.350;18.664;2023-04-01T17:45:07;7.10;99.90
18321;DHT22;54904;54.350;18.664;2023-04-01T17:47:43;7.10;99.90
18321;DHT22;54904;54.350;18.664;2023-04-01T17:50:22;7.10;99.90
18321;DHT22;54904;54.350;18.664;2023-04-01T17:53:02;7.10;99.90
18321;DHT22;54904;54.350;18.664;2023-04-01T17:55:44;7.10;99.90
18321;DHT22;54904;54.350;18.664;2023-04-01T17:58:18;7.00;99.90
18321;DHT22;54904;54.350;18.664;2023-04-01T18:00:54;7.00;99.90